Terminal Aerodrome Forecast
Issued by NWS

Home | Current Version | Previous Version | Text Only | Print | Product List | Glossary On
Versions: 1 2 3 4 5 6 7 8 9 10 11 12 13 14 15 16 17
893
FTUS46 KLOX 282331
TAFPRB
TAF
KPRB 282331Z 2900/2924 31015G20KT P6SM FEW035
     FM290300 31008KT P6SM SCT250
     FM291200 VRB03KT P6SM SCT250
     FM292100 28012KT P6SM SCT250=

USA.gov is the U.S. government's official web portal to all federal, state and local government web resources and services.